Time;durP1;ratioP1;P1;durP2;ratioP2;P2;SDS_P1;SDS_P2;PMS_P1;PMS_P2;Temp;Humidity;BMP_temperature;BMP_pressure;BME280_temperature;BME280_humidity;BME280_pressure;Samples;Min_cycle;Max_cycle;Signal;HPM_P1;HPM_P2
2022/04/12 00:00:27;;;;;;;7.10;4.33;;;;;8.30;100722.00;;;;4927227;28;20318;-69
2022/04/12 00:03:15;;;;;;;7.03;3.80;;;;;8.30;100735.00;;;;4924322;28;20343;-70
2022/04/12 00:06:02;;;;;;;4.80;3.50;;;;;8.30;100731.00;;;;4916360;28;20283;-69
2022/04/12 00:08:48;;;;;;;5.77;3.43;;;;;8.30;100738.00;;;;4921588;28;20285;-70
2022/04/12 00:11:34;;;;;;;7.33;4.17;;;;;8.20;100735.00;;;;4908451;29;20241;-68
2022/04/12 00:14:20;;;;;;;7.47;3.67;;;;;8.20;100732.00;;;;4908280;29;20257;-71
2022/04/12 00:20:13;;;;;;;4.67;3.53;;;;;8.00;100729.00;;;;4912652;28;20610;-71
2022/04/12 00:23:00;;;;;;;7.27;3.90;;;;;7.90;100724.00;;;;4917016;28;20717;-68
2022/04/12 00:25:46;;;;;;;8.97;4.50;;;;;7.90;100725.00;;;;4915339;28;20249;-68
2022/04/12 00:28:33;;;;;;;9.03;4.17;;;;;7.90;100721.00;;;;4919205;28;20232;-69
2022/04/12 00:31:19;;;;;;;6.17;3.67;;;;;7.90;100720.00;;;;4909443;29;20244;-69
2022/04/12 00:34:05;;;;;;;4.73;3.57;;;;;8.00;100721.00;;;;4908570;29;20241;-68
2022/04/12 00:36:53;;;;;;;6.13;4.00;;;;;7.90;100713.00;;;;4921830;28;20240;-69
2022/04/12 00:39:39;;;;;;;4.87;3.73;;;;;7.80;100710.00;;;;4928571;28;20236;-65
2022/04/12 00:42:25;;;;;;;5.07;3.43;;;;;7.80;100709.00;;;;4924267;28;20605;-68
2022/04/12 00:45:11;;;;;;;5.13;3.50;;;;;7.80;100711.00;;;;4930444;28;20292;-72
2022/04/12 00:47:58;;;;;;;4.77;3.47;;;;;7.80;100706.00;;;;4910582;29;20325;-69
2022/04/12 00:50:46;;;;;;;7.33;3.60;;;;;7.70;100702.00;;;;4925224;28;20263;-69
2022/04/12 00:53:34;;;;;;;5.27;4.03;;;;;7.70;100704.00;;;;4929832;28;20281;-70
2022/04/12 00:56:21;;;;;;;4.80;3.57;;;;;7.70;100700.00;;;;4921074;28;20309;-69
2022/04/12 00:59:08;;;;;;;3.73;2.90;;;;;7.60;100690.00;;;;4924696;28;20244;-69
2022/04/12 01:01:54;;;;;;;5.13;3.70;;;;;7.50;100687.00;;;;4919723;28;20284;-69
2022/04/12 01:04:41;;;;;;;6.20;3.30;;;;;7.50;100678.00;;;;4913455;28;20237;-68
2022/04/12 01:07:28;;;;;;;4.37;3.10;;;;;7.40;100691.00;;;;4910837;29;20308;-68
2022/04/12 01:10:16;;;;;;;4.70;3.50;;;;;7.40;100677.00;;;;4910939;29;20995;-68
2022/04/12 01:13:03;;;;;;;10.03;4.00;;;;;7.40;100682.00;;;;4911387;29;20237;-69
2022/04/12 01:15:50;;;;;;;4.77;3.53;;;;;7.40;100680.00;;;;4910895;29;20233;-69
2022/04/12 01:18:37;;;;;;;5.10;3.47;;;;;7.40;100676.00;;;;4921326;28;20252;-69
2022/04/12 01:21:23;;;;;;;5.37;3.63;;;;;7.40;100673.00;;;;4920633;28;20322;-70
2022/04/12 01:24:11;;;;;;;5.27;3.33;;;;;7.30;100669.00;;;;4930434;28;20364;-69
2022/04/12 01:26:58;;;;;;;4.43;3.67;;;;;7.20;100672.00;;;;4929703;28;20308;-65
2022/04/12 01:29:44;;;;;;;5.33;3.20;;;;;7.10;100668.00;;;;4918456;28;20232;-69
2022/04/12 01:32:30;;;;;;;6.40;3.90;;;;;7.20;100667.00;;;;4916494;29;20240;-69
2022/04/12 01:35:16;;;;;;;5.27;3.87;;;;;7.20;100670.00;;;;4910600;29;20237;-70
2022/04/12 01:38:03;;;;;;;4.50;3.50;;;;;7.10;100659.00;;;;4919672;28;20240;-69
2022/04/12 01:40:51;;;;;;;5.00;3.33;;;;;7.10;100662.00;;;;4926072;28;20240;-71
2022/04/12 01:43:37;;;;;;;4.43;3.53;;;;;7.00;100657.00;;;;4918484;29;20312;-70
2022/04/12 01:46:24;;;;;;;5.47;3.77;;;;;6.90;100652.00;;;;4910349;29;20891;-68
2022/04/12 01:49:10;;;;;;;5.20;3.80;;;;;6.90;100643.00;;;;4925675;28;20256;-70
2022/04/12 01:51:56;;;;;;;6.40;3.57;;;;;7.00;100645.00;;;;4909910;29;20236;-69
2022/04/12 01:54:43;;;;;;;5.37;3.60;;;;;7.00;100642.00;;;;4921165;28;20284;-68
2022/04/12 01:57:30;;;;;;;5.33;3.90;;;;;7.00;100640.00;;;;4921166;28;20243;-69
2022/04/12 02:00:17;;;;;;;5.00;3.70;;;;;7.00;100640.00;;;;4910641;29;20301;-70
2022/04/12 02:03:04;;;;;;;6.27;3.90;;;;;6.90;100637.00;;;;4910760;29;20241;-69
2022/04/12 02:05:51;;;;;;;4.77;3.07;;;;;6.90;100634.00;;;;4922861;28;20260;-66
2022/04/12 02:08:39;;;;;;;5.47;3.33;;;;;6.90;100642.00;;;;4929100;28;20289;-69
2022/04/12 02:11:25;;;;;;;11.63;3.90;;;;;6.80;100639.00;;;;4928579;28;20738;-68
2022/04/12 02:14:13;;;;;;;5.63;3.50;;;;;6.80;100644.00;;;;4921697;28;20241;-71
2022/04/12 02:16:59;;;;;;;7.93;3.50;;;;;6.80;100644.00;;;;4916024;28;20309;-68
2022/04/12 02:19:45;;;;;;;5.47;3.60;;;;;6.80;100640.00;;;;4911955;28;20241;-69
2022/04/12 02:22:31;;;;;;;6.03;3.97;;;;;6.70;100631.00;;;;4910082;29;20290;-69
2022/04/12 02:25:18;;;;;;;7.67;3.50;;;;;6.70;100640.00;;;;4909898;29;20237;-69
2022/04/12 02:28:05;;;;;;;6.43;3.80;;;;;6.60;100635.00;;;;4910091;29;20242;-69
2022/04/12 02:30:52;;;;;;;4.37;3.50;;;;;6.60;100627.00;;;;4926429;28;20323;-68
2022/04/12 02:33:39;;;;;;;4.63;3.50;;;;;6.70;100630.00;;;;4928836;28;20609;-71
2022/04/12 02:36:25;;;;;;;5.67;3.63;;;;;6.60;100635.00;;;;4928375;28;20871;-70
2022/04/12 02:39:11;;;;;;;5.23;3.43;;;;;6.70;100627.00;;;;4929412;28;20252;-68
2022/04/12 02:41:57;;;;;;;6.23;4.07;;;;;6.70;100629.00;;;;4909695;29;20718;-68
2022/04/12 02:44:43;;;;;;;6.53;4.07;;;;;6.70;100624.00;;;;4912033;28;20278;-67
2022/04/12 02:47:31;;;;;;;8.23;4.00;;;;;6.70;100622.00;;;;4927972;28;20793;-68
2022/04/12 02:50:17;;;;;;;7.10;4.50;;;;;6.80;100622.00;;;;4928242;28;20240;-69
2022/04/12 02:53:04;;;;;;;7.17;4.27;;;;;6.70;100629.00;;;;4920190;28;20292;-69
2022/04/12 02:55:50;;;;;;;5.70;4.27;;;;;6.80;100616.00;;;;4921581;28;21002;-67
2022/04/12 02:58:36;;;;;;;7.73;4.70;;;;;7.00;100619.00;;;;4909866;28;20237;-69
2022/04/12 03:01:23;;;;;;;6.13;4.30;;;;;7.00;100621.00;;;;4909066;29;20292;-68
2022/04/12 03:04:10;;;;;;;7.70;4.07;;;;;7.00;100605.00;;;;4912148;29;20286;-69
2022/04/12 03:06:56;;;;;;;7.00;4.77;;;;;7.00;100610.00;;;;4908981;29;20228;-69
2022/04/12 03:09:42;;;;;;;8.03;4.10;;;;;7.10;100616.00;;;;4909277;29;20221;-69
2022/04/12 03:12:29;;;;;;;6.27;4.30;;;;;7.10;100609.00;;;;4909010;29;20232;-68
2022/04/12 03:15:15;;;;;;;6.33;4.10;;;;;7.10;100607.00;;;;4909658;29;20362;-69
2022/04/12 03:18:01;;;;;;;6.23;4.23;;;;;7.10;100609.00;;;;4912923;29;20378;-68
2022/04/12 03:20:51;;;;;;;6.57;4.00;;;;;7.10;100609.00;;;;4911237;29;20609;-69
2022/04/12 03:23:37;;;;;;;6.43;4.50;;;;;7.00;100612.00;;;;4908998;29;20237;-70
2022/04/12 03:26:24;;;;;;;6.67;4.50;;;;;7.10;100617.00;;;;4925014;28;20228;-70
2022/04/12 03:29:10;;;;;;;7.47;4.03;;;;;7.00;100620.00;;;;4928072;28;20233;-69
2022/04/12 03:31:56;;;;;;;5.70;3.80;;;;;6.90;100611.00;;;;4913822;28;20276;-69
2022/04/12 03:34:44;;;;;;;6.33;4.10;;;;;6.90;100588.00;;;;4927538;28;20244;-69
2022/04/12 03:37:32;;;;;;;6.77;4.30;;;;;6.90;100601.00;;;;4917633;28;20770;-69
2022/04/12 03:40:18;;;;;;;6.30;4.60;;;;;6.90;100607.00;;;;4908087;29;20256;-69
2022/04/12 03:43:06;;;;;;;7.27;4.23;;;;;6.80;100601.00;;;;4908736;29;20232;-68
2022/04/12 03:45:52;;;;;;;6.40;3.67;;;;;6.80;100601.00;;;;4919767;28;20236;-65
2022/04/12 03:48:38;;;;;;;6.73;4.40;;;;;6.80;100589.00;;;;4927432;28;20791;-70
2022/04/12 03:51:24;;;;;;;7.33;4.20;;;;;6.80;100594.00;;;;4916521;28;20245;-71
2022/04/12 03:54:12;;;;;;;7.50;4.57;;;;;6.80;100583.00;;;;4909171;29;20722;-70
2022/04/12 03:56:58;;;;;;;9.03;4.73;;;;;6.80;100583.00;;;;4920976;28;20236;-69
2022/04/12 03:59:44;;;;;;;7.90;4.70;;;;;6.80;100591.00;;;;4923436;28;20279;-69
2022/04/12 04:02:30;;;;;;;8.37;4.03;;;;;6.70;100588.00;;;;4927210;28;20788;-67
2022/04/12 04:05:16;;;;;;;8.80;4.83;;;;;6.80;100576.00;;;;4912336;28;20734;-67
2022/04/12 04:08:03;;;;;;;8.33;5.10;;;;;6.90;100572.00;;;;4921456;28;20244;-69
2022/04/12 04:10:51;;;;;;;7.77;4.30;;;;;6.80;100583.00;;;;4918818;28;20228;-69
2022/04/12 04:13:39;;;;;;;6.20;4.03;;;;;6.70;100578.00;;;;4927245;28;20236;-68
2022/04/12 04:16:25;;;;;;;9.73;4.80;;;;;6.80;100573.00;;;;4926683;28;20228;-70
2022/04/12 04:19:11;;;;;;;6.73;4.13;;;;;6.90;100575.00;;;;4914171;29;20240;-70
2022/04/12 04:21:57;;;;;;;6.43;4.50;;;;;6.80;100561.00;;;;4908227;29;20281;-68
2022/04/12 04:24:44;;;;;;;8.70;4.50;;;;;6.90;100563.00;;;;4913386;28;20329;-69
2022/04/12 04:27:32;;;;;;;7.50;4.77;;;;;7.00;100562.00;;;;4907661;29;21037;-67
2022/04/12 04:30:19;;;;;;;6.97;4.27;;;;;6.90;100572.00;;;;4913211;29;20303;-69
2022/04/12 04:33:07;;;;;;;6.20;4.10;;;;;6.90;100567.00;;;;4913964;28;20240;-69
2022/04/12 04:35:53;;;;;;;9.87;5.07;;;;;6.90;100565.00;;;;4920009;28;20237;-69
2022/04/12 04:38:39;;;;;;;7.37;4.50;;;;;7.00;100559.00;;;;4922553;28;20253;-68
2022/04/12 04:41:27;;;;;;;7.37;4.73;;;;;6.90;100561.00;;;;4907874;29;20229;-69
2022/04/12 04:44:16;;;;;;;8.03;5.10;;;;;6.90;100564.00;;;;4908278;29;20229;-69
2022/04/12 04:47:03;;;;;;;7.37;4.83;;;;;6.70;100579.00;;;;4921329;28;20331;-69
2022/04/12 04:49:50;;;;;;;7.60;4.70;;;;;6.70;100567.00;;;;4916301;28;20706;-68
2022/04/12 04:52:36;;;;;;;7.10;4.40;;;;;6.70;100564.00;;;;4925439;28;20240;-68
2022/04/12 04:55:23;;;;;;;7.03;4.40;;;;;6.60;100572.00;;;;4927209;28;20383;-69
2022/04/12 04:58:10;;;;;;;8.23;4.83;;;;;6.50;100573.00;;;;4923582;28;20236;-69
2022/04/12 05:00:58;;;;;;;7.73;4.57;;;;;6.50;100580.00;;;;4919876;28;20580;-68
2022/04/12 05:03:45;;;;;;;6.97;4.60;;;;;6.50;100580.00;;;;4926448;28;20828;-70
2022/04/12 05:06:31;;;;;;;8.13;5.03;;;;;6.50;100586.00;;;;4926390;28;20229;-70
2022/04/12 05:09:17;;;;;;;8.10;5.03;;;;;6.50;100589.00;;;;4926722;28;20301;-68
2022/04/12 05:12:04;;;;;;;7.50;4.80;;;;;6.60;100588.00;;;;4920467;28;20245;-71
2022/04/12 05:14:50;;;;;;;5.43;4.07;;;;;6.60;100583.00;;;;4926099;28;20284;-70
2022/04/12 05:17:37;;;;;;;8.20;5.47;;;;;6.70;100599.00;;;;4924778;28;20304;-70
2022/04/12 05:20:26;;;;;;;7.30;4.80;;;;;6.80;100598.00;;;;4913068;29;20360;-71
2022/04/12 05:23:12;;;;;;;9.73;4.77;;;;;6.70;100597.00;;;;4911858;29;20327;-69
2022/04/12 05:25:59;;;;;;;9.87;5.07;;;;;6.80;100596.00;;;;4922907;28;20731;-69
2022/04/12 05:28:45;;;;;;;8.00;5.23;;;;;6.90;100581.00;;;;4929392;28;20244;-69
2022/04/12 05:31:31;;;;;;;7.73;5.07;;;;;7.00;100580.00;;;;4913633;29;20350;-68
2022/04/12 05:34:19;;;;;;;8.33;4.43;;;;;7.00;100589.00;;;;4913148;29;20309;-70
2022/04/12 05:37:06;;;;;;;7.07;4.53;;;;;7.00;100596.00;;;;4923798;28;20889;-70
2022/04/12 05:39:52;;;;;;;9.87;5.10;;;;;7.00;100594.00;;;;4920696;28;20237;-70
2022/04/12 05:42:40;;;;;;;8.37;4.90;;;;;7.00;100590.00;;;;4912057;29;20241;-68
2022/04/12 05:45:26;;;;;;;7.83;5.50;;;;;7.10;100597.00;;;;4910811;29;20557;-70
2022/04/12 05:48:13;;;;;;;11.97;5.40;;;;;7.10;100605.00;;;;4926684;28;20244;-70
2022/04/12 05:51:00;;;;;;;8.97;5.10;;;;;7.30;100605.00;;;;4914408;29;20228;-69
2022/04/12 05:53:47;;;;;;;7.90;5.43;;;;;7.60;100599.00;;;;4915683;28;20285;-71
2022/04/12 05:56:33;;;;;;;8.07;5.10;;;;;7.60;100605.00;;;;4914381;28;20233;-70
2022/04/12 05:59:19;;;;;;;8.47;4.77;;;;;7.60;100605.00;;;;4915129;28;20241;-70
2022/04/12 06:02:05;;;;;;;6.23;4.63;;;;;7.70;100601.00;;;;4910544;29;20309;-72
2022/04/12 06:04:51;;;;;;;5.97;4.37;;;;;7.80;100599.00;;;;4916186;28;20252;-70
2022/04/12 06:07:39;;;;;;;11.07;5.00;;;;;7.90;100608.00;;;;4918882;28;20260;-70
2022/04/12 06:10:25;;;;;;;8.63;5.20;;;;;7.90;100605.00;;;;4914842;28;20229;-73
2022/04/12 06:13:18;;;;;;;9.03;5.47;;;;;8.00;100598.00;;;;4912462;29;20289;-68
2022/04/12 06:16:05;;;;;;;8.47;5.00;;;;;8.00;100605.00;;;;4911796;28;20240;-70
2022/04/12 06:18:51;;;;;;;9.37;5.07;;;;;8.10;100607.00;;;;4915721;28;20244;-71
2022/04/12 06:21:37;;;;;;;7.47;5.07;;;;;8.10;100607.00;;;;4919637;28;20228;-70
2022/04/12 06:24:25;;;;;;;11.10;5.33;;;;;8.20;100611.00;;;;4910338;29;20242;-70
2022/04/12 06:27:11;;;;;;;8.00;5.07;;;;;8.20;100617.00;;;;4923482;28;20611;-71
2022/04/12 06:29:58;;;;;;;7.17;4.73;;;;;8.30;100606.00;;;;4917971;28;20241;-69
2022/04/12 06:32:45;;;;;;;8.53;5.27;;;;;8.40;100618.00;;;;4919210;28;20627;-70
2022/04/12 06:35:31;;;;;;;9.00;4.97;;;;;8.40;100610.00;;;;4927674;28;20232;-69
2022/04/12 06:38:18;;;;;;;8.53;5.50;;;;;8.50;100609.00;;;;4924308;28;20241;-69
2022/04/12 06:41:06;;;;;;;10.97;5.20;;;;;8.70;100608.00;;;;4917859;29;20262;-70
2022/04/12 06:43:52;;;;;;;8.27;5.47;;;;;8.60;100619.00;;;;4909241;29;20329;-71
2022/04/12 06:46:38;;;;;;;10.13;5.50;;;;;8.80;100611.00;;;;4909191;29;20353;-70
2022/04/12 06:49:25;;;;;;;6.83;5.30;;;;;8.90;100602.00;;;;4911346;28;20246;-69
2022/04/12 06:52:11;;;;;;;9.13;5.80;;;;;9.10;100602.00;;;;4909437;29;20234;-70
2022/04/12 06:54:59;;;;;;;11.77;5.63;;;;;9.20;100590.00;;;;4913629;28;20245;-72
2022/04/12 06:57:46;;;;;;;10.43;5.87;;;;;9.30;100601.00;;;;4923651;28;20740;-70
2022/04/12 07:00:33;;;;;;;7.87;5.03;;;;;9.40;100596.00;;;;4911877;28;20231;-70
2022/04/12 07:03:20;;;;;;;7.10;4.43;;;;;9.50;100605.00;;;;4923888;28;20285;-70
2022/04/12 07:06:07;;;;;;;7.63;4.97;;;;;9.70;100601.00;;;;4921850;28;20857;-70
2022/04/12 07:08:53;;;;;;;8.83;5.23;;;;;9.90;100595.00;;;;4927805;28;20234;-70
2022/04/12 07:11:39;;;;;;;6.93;4.77;;;;;10.00;100605.00;;;;4927920;28;20367;-70
2022/04/12 07:14:29;;;;;;;8.93;4.57;;;;;10.00;100604.00;;;;4928150;28;20390;-70
2022/04/12 07:17:15;;;;;;;9.17;5.17;;;;;9.90;100602.00;;;;4908849;29;20260;-71
2022/04/12 07:20:02;;;;;;;9.80;4.87;;;;;9.90;100600.00;;;;4912854;28;20230;-70
2022/04/12 07:22:48;;;;;;;7.07;5.10;;;;;10.00;100597.00;;;;4913783;28;20250;-73
2022/04/12 07:25:35;;;;;;;7.63;4.60;;;;;10.20;100589.00;;;;4908532;29;20243;-71
2022/04/12 07:28:21;;;;;;;6.60;4.60;;;;;10.30;100596.00;;;;4908546;29;20729;-71
2022/04/12 07:31:09;;;;;;;8.77;5.20;;;;;10.50;100597.00;;;;4927490;28;20706;-71
2022/04/12 07:33:56;;;;;;;7.63;4.67;;;;;10.50;100607.00;;;;4927755;28;20751;-72
2022/04/12 07:36:47;;;;;;;7.37;4.80;;;;;10.60;100604.00;;;;4924876;28;20240;-70
2022/04/12 07:39:33;;;;;;;7.07;5.10;;;;;10.80;100605.00;;;;4927739;28;20236;-69
2022/04/12 07:42:20;;;;;;;8.03;4.70;;;;;11.10;100600.00;;;;4922445;28;20293;-70
2022/04/12 07:45:06;;;;;;;6.73;4.53;;;;;11.30;100597.00;;;;4927186;28;20240;-69
2022/04/12 07:47:54;;;;;;;8.10;4.90;;;;;11.60;100606.00;;;;4926224;28;20289;-69
2022/04/12 07:50:45;;;;;;;7.97;4.73;;;;;11.60;100607.00;;;;4927455;28;20312;-70
2022/04/12 07:53:31;;;;;;;8.47;4.60;;;;;11.60;100603.00;;;;4927585;28;20781;-70
2022/04/12 07:56:18;;;;;;;7.07;4.77;;;;;11.80;100604.00;;;;4921771;28;20341;-67
2022/04/12 07:59:06;;;;;;;10.83;6.23;;;;;12.00;100596.00;;;;4908914;29;20260;-69
2022/04/12 08:01:52;;;;;;;8.50;4.97;;;;;12.20;100607.00;;;;4926300;28;20361;-69
2022/04/12 08:04:41;;;;;;;6.07;4.47;;;;;12.40;100602.00;;;;4927209;28;20307;-68
2022/04/12 08:07:27;;;;;;;8.97;4.50;;;;;12.70;100598.00;;;;4919107;28;20253;-68
2022/04/12 08:10:15;;;;;;;7.83;4.70;;;;;12.80;100588.00;;;;4913472;28;20236;-69
2022/04/12 08:13:01;;;;;;;6.70;4.47;;;;;12.90;100586.00;;;;4926985;28;20634;-69
2022/04/12 08:15:47;;;;;;;6.67;4.40;;;;;13.20;100588.00;;;;4925203;28;20319;-67
2022/04/12 08:18:33;;;;;;;8.13;5.03;;;;;13.40;100579.00;;;;4913000;28;20233;-71
2022/04/12 08:21:32;;;;;;;6.63;4.57;;;;;13.60;100574.00;;;;4924385;28;20224;-69
2022/04/12 08:24:19;;;;;;;7.40;4.70;;;;;13.60;100570.00;;;;4908494;29;20233;-68
2022/04/12 08:27:06;;;;;;;6.13;4.40;;;;;13.80;100566.00;;;;4908238;29;20233;-69
2022/04/12 08:29:52;;;;;;;10.27;5.67;;;;;14.10;100559.00;;;;4915396;29;20246;-69
2022/04/12 08:32:39;;;;;;;5.10;4.10;;;;;14.50;100541.00;;;;4908162;29;20237;-70
2022/04/12 08:35:25;;;;;;;6.17;4.03;;;;;14.80;100545.00;;;;4908172;29;20370;-70
2022/04/12 08:38:13;;;;;;;6.90;4.00;;;;;14.80;100536.00;;;;4908179;29;20253;-67
2022/04/12 08:41:02;;;;;;;6.57;3.67;;;;;15.00;100548.00;;;;4907931;29;20241;-69
2022/04/12 08:43:52;;;;;;;5.83;3.67;;;;;15.10;100546.00;;;;4917020;28;20232;-69
2022/04/12 08:46:44;;;;;;;6.07;3.93;;;;;15.30;100544.00;;;;4923204;28;20231;-70
2022/04/12 08:49:32;;;;;;;6.70;4.00;;;;;15.50;100545.00;;;;4908053;29;20283;-69
2022/04/12 08:52:18;;;;;;;5.33;3.70;;;;;15.70;100549.00;;;;4926882;28;20235;-69
2022/04/12 08:55:08;;;;;;;7.50;4.20;;;;;15.90;100536.00;;;;4919301;28;20247;-70
2022/04/12 08:57:54;;;;;;;7.13;3.70;;;;;16.00;100529.00;;;;4920217;28;20376;-73
2022/04/12 09:00:40;;;;;;;9.13;4.13;;;;;16.30;100530.00;;;;4911417;29;20239;-73
2022/04/12 09:03:27;;;;;;;6.23;3.77;;;;;16.20;100536.00;;;;4912222;28;20315;-70
2022/04/12 09:06:14;;;;;;;6.93;3.70;;;;;16.30;100522.00;;;;4913941;28;20236;-70
2022/04/12 09:09:10;;;;;;;6.70;3.80;;;;;16.40;100525.00;;;;4918141;28;20373;-69
2022/04/12 09:12:02;;;;;;;5.53;3.30;;;;;16.60;100528.00;;;;4914574;28;20308;-68
2022/04/12 09:14:52;;;;;;;3.33;2.60;;;;;16.90;100522.00;;;;4910907;28;20248;-69
2022/04/12 09:17:41;;;;;;;6.37;2.80;;;;;17.20;100525.00;;;;4929390;28;20316;-69
2022/04/12 09:20:28;;;;;;;2.70;1.93;;;;;17.70;100516.00;;;;4914409;29;20348;-69
2022/04/12 09:23:17;;;;;;;3.10;1.80;;;;;17.70;100513.00;;;;4916966;29;20229;-67
2022/04/12 09:26:04;;;;;;;6.07;1.80;;;;;17.90;100514.00;;;;4928581;28;20747;-69
2022/04/12 09:28:53;;;;;;;2.83;1.73;;;;;18.10;100511.00;;;;4921780;28;20284;-69
2022/04/12 09:31:43;;;;;;;2.03;1.67;;;;;18.30;100519.00;;;;4926465;28;20706;-67
2022/04/12 09:34:30;;;;;;;1.90;1.70;;;;;18.50;100505.00;;;;4914186;29;20254;-69
2022/04/12 09:37:31;;;;;;;1.90;1.70;;;;;18.60;100507.00;;;;4914319;29;20767;-72
2022/04/12 09:40:19;;;;;;;4.20;1.60;;;;;18.70;100489.00;;;;4928243;28;20659;-69
2022/04/12 09:43:12;;;;;;;1.50;1.40;;;;;18.90;100501.00;;;;4941814;28;20236;-71
2022/04/12 09:46:06;;;;;;;3.20;1.63;;;;;19.00;100502.00;;;;4935905;28;20241;-73
2022/04/12 09:48:53;;;;;;;3.33;1.50;;;;;19.20;100501.00;;;;4926964;28;21008;-73
2022/04/12 09:51:39;;;;;;;1.60;1.40;;;;;19.40;100505.00;;;;4924914;28;20252;-74
2022/04/12 09:54:26;;;;;;;4.20;1.60;;;;;19.40;100497.00;;;;4922276;28;20735;-68
2022/04/12 09:57:13;;;;;;;2.77;1.47;;;;;19.50;100500.00;;;;4923933;28;20236;-72
2022/04/12 10:00:08;;;;;;;2.03;1.40;;;;;19.70;100493.00;;;;4920882;28;20393;-72
2022/04/12 10:02:58;;;;;;;3.43;1.67;;;;;20.00;100493.00;;;;4921410;28;20309;-70
2022/04/12 10:05:45;;;;;;;2.00;1.53;;;;;20.20;100496.00;;;;4922799;28;20393;-68
2022/04/12 10:08:34;;;;;;;1.70;1.33;;;;;20.20;100496.00;;;;4929328;28;20236;-69
2022/04/12 10:11:21;;;;;;;2.33;1.30;;;;;20.10;100480.00;;;;4923020;28;20233;-72
2022/04/12 10:14:10;;;;;;;2.10;1.37;;;;;20.20;100478.00;;;;4929318;28;20753;-68
2022/04/12 10:16:57;;;;;;;2.30;1.60;;;;;20.40;100476.00;;;;4920275;28;20242;-70
2022/04/12 10:19:45;;;;;;;1.67;1.57;;;;;20.50;100479.00;;;;4912798;29;20927;-70
2022/04/12 10:22:33;;;;;;;2.00;1.60;;;;;20.60;100473.00;;;;4911994;29;20767;-69
2022/04/12 10:25:22;;;;;;;2.17;1.70;;;;;20.70;100476.00;;;;4910168;29;20242;-69
2022/04/12 10:28:09;;;;;;;2.73;1.40;;;;;20.90;100477.00;;;;4909691;29;20234;-69
2022/04/12 10:31:19;;;;;;;1.70;1.37;;;;;20.80;100479.00;;;;4909720;29;20311;-67
2022/04/12 10:34:23;;;;;;;2.80;1.40;;;;;20.90;100473.00;;;;4909949;29;20231;-65
2022/04/12 10:37:15;;;;;;;5.40;1.53;;;;;21.20;100471.00;;;;4922815;28;20303;-71
2022/04/12 10:40:21;;;;;;;1.83;1.50;;;;;21.40;100471.00;;;;4917394;28;20231;-69
2022/04/12 10:43:16;;;;;;;4.67;1.77;;;;;21.40;100472.00;;;;4912217;29;20256;-69
2022/04/12 10:46:04;;;;;;;1.70;1.43;;;;;21.40;100467.00;;;;4909130;29;20243;-69
2022/04/12 10:48:57;;;;;;;2.03;1.40;;;;;21.20;100472.00;;;;4909213;29;20248;-71
2022/04/12 10:51:44;;;;;;;2.77;1.40;;;;;21.20;100471.00;;;;4925159;28;20251;-69
2022/04/12 10:54:34;;;;;;;2.67;1.70;;;;;21.40;100479.00;;;;4928261;28;20236;-70
2022/04/12 10:57:24;;;;;;;3.90;1.50;;;;;21.60;100467.00;;;;4921494;28;21103;-70
2022/04/12 11:00:12;;;;;;;1.80;1.50;;;;;21.50;100483.00;;;;4927961;28;20786;-66
2022/04/12 11:03:00;;;;;;;3.80;1.40;;;;;21.40;100473.00;;;;4910546;28;20244;-73
2022/04/12 11:05:56;;;;;;;1.90;1.57;;;;;21.60;100477.00;;;;4909417;29;20250;-72
2022/04/12 11:08:47;;;;;;;3.23;2.40;;;;;21.70;100476.00;;;;4925258;28;20244;-67
2022/04/12 11:11:40;;;;;;;3.87;2.00;;;;;21.80;100463.00;;;;4927718;28;20356;-71
2022/04/12 11:14:32;;;;;;;3.43;1.70;;;;;21.90;100481.00;;;;4909242;29;20240;-70
2022/04/12 11:17:25;;;;;;;3.97;2.20;;;;;21.90;100470.00;;;;4909057;29;20231;-65
2022/04/12 11:20:21;;;;;;;2.17;1.80;;;;;22.20;100469.00;;;;4927312;28;20239;-67
2022/04/12 11:23:09;;;;;;;2.50;1.50;;;;;22.40;100466.00;;;;4927491;28;20235;-68
2022/04/12 11:25:55;;;;;;;4.10;2.10;;;;;22.60;100466.00;;;;4927867;28;20237;-68
2022/04/12 11:28:43;;;;;;;2.10;1.57;;;;;22.80;100465.00;;;;4928375;28;20240;-68
2022/04/12 11:31:29;;;;;;;4.87;2.67;;;;;23.00;100470.00;;;;4922205;28;20228;-70
2022/04/12 11:34:20;;;;;;;2.00;1.30;;;;;23.00;100465.00;;;;4917912;28;20228;-71
2022/04/12 11:37:08;;;;;;;2.50;1.43;;;;;22.90;100461.00;;;;4927531;28;20239;-69
2022/04/12 11:39:55;;;;;;;3.07;1.70;;;;;23.10;100445.00;;;;4926569;28;20241;-70
2022/04/12 11:42:43;;;;;;;1.83;1.40;;;;;23.30;100461.00;;;;4909276;29;20722;-71
2022/04/12 11:45:34;;;;;;;1.80;1.20;;;;;23.30;100453.00;;;;4910185;29;20236;-72
2022/04/12 11:48:21;;;;;;;2.43;1.47;;;;;23.20;100445.00;;;;4917274;28;20250;-71
2022/04/12 11:51:08;;;;;;;2.40;1.40;;;;;23.40;100441.00;;;;4908957;29;20232;-71
2022/04/12 11:53:55;;;;;;;1.50;1.40;;;;;23.30;100459.00;;;;4908311;29;20237;-71
2022/04/12 11:56:41;;;;;;;2.63;1.40;;;;;23.50;100452.00;;;;4908223;29;20887;-66
2022/04/12 11:59:28;;;;;;;2.43;1.20;;;;;23.50;100449.00;;;;4918817;28;20717;-70
2022/04/12 12:02:18;;;;;;;1.43;1.33;;;;;23.70;100465.00;;;;4903431;29;20790;-70
2022/04/12 12:05:07;;;;;;;1.83;1.30;;;;;23.80;100455.00;;;;4921458;28;22489;-68
2022/04/12 12:07:58;;;;;;;4.53;1.50;;;;;23.80;100453.00;;;;4923803;28;20761;-70
2022/04/12 12:10:45;;;;;;;1.67;1.30;;;;;23.90;100449.00;;;;4907487;28;20613;-72
2022/04/12 12:13:32;;;;;;;2.93;1.40;;;;;23.90;100463.00;;;;4921486;28;20245;-70
2022/04/12 12:16:18;;;;;;;2.23;1.37;;;;;23.60;100456.00;;;;4919254;28;20736;-72
2022/04/12 12:19:06;;;;;;;1.70;1.27;;;;;23.90;100430.00;;;;4914435;29;20612;-71
2022/04/12 12:21:53;;;;;;;1.90;1.60;;;;;23.90;100458.00;;;;4907976;29;20249;-71
2022/04/12 12:24:52;;;;;;;2.00;1.50;;;;;24.10;100449.00;;;;4908324;29;20731;-70
2022/04/12 12:27:41;;;;;;;1.50;1.30;;;;;24.10;100445.00;;;;4921749;28;20236;-69
2022/04/12 12:30:29;;;;;;;2.03;1.40;;;;;24.30;100445.00;;;;4909235;29;20236;-70
2022/04/12 12:33:16;;;;;;;2.37;1.40;;;;;24.40;100439.00;;;;4914816;29;20224;-70
2022/04/12 12:36:04;;;;;;;2.30;1.33;;;;;24.80;100441.00;;;;4911732;29;20305;-71
2022/04/12 12:38:50;;;;;;;1.40;1.30;;;;;25.00;100448.00;;;;4912235;29;20395;-71
2022/04/12 12:41:37;;;;;;;2.83;1.30;;;;;25.30;100445.00;;;;4913949;29;20309;-71
2022/04/12 12:44:23;;;;;;;1.90;1.33;;;;;25.70;100444.00;;;;4923922;28;20709;-70
2022/04/12 12:47:11;;;;;;;2.00;1.43;;;;;25.20;100438.00;;;;4929350;28;20233;-69
2022/04/12 12:49:57;;;;;;;2.60;1.53;;;;;25.00;100431.00;;;;4930460;28;20232;-70
2022/04/12 12:52:46;;;;;;;1.60;1.40;;;;;24.90;100434.00;;;;4930948;28;20374;-71
2022/04/12 12:55:34;;;;;;;2.87;1.40;;;;;25.00;100439.00;;;;4926971;28;20315;-71
2022/04/12 12:58:29;;;;;;;2.17;1.43;;;;;25.00;100432.00;;;;4923844;28;20232;-67
2022/04/12 13:01:16;;;;;;;2.33;1.40;;;;;25.00;100437.00;;;;4912154;29;20367;-70
2022/04/12 13:04:06;;;;;;;1.97;1.33;;;;;25.00;100436.00;;;;4911414;29;20253;-71
2022/04/12 13:07:04;;;;;;;2.07;1.50;;;;;25.20;100424.00;;;;4916608;28;20240;-71
2022/04/12 13:09:53;;;;;;;3.13;1.20;;;;;25.30;100419.00;;;;4924681;28;20646;-71
2022/04/12 13:12:41;;;;;;;1.80;1.40;;;;;25.50;100394.00;;;;4925016;28;20703;-71
2022/04/12 13:15:28;;;;;;;1.77;1.10;;;;;25.40;100394.00;;;;4911729;29;20767;-70
2022/04/12 13:18:15;;;;;;;1.73;1.30;;;;;25.50;100407.00;;;;4914453;29;20244;-69
2022/04/12 13:21:01;;;;;;;1.43;1.33;;;;;25.60;100416.00;;;;4913331;29;20270;-69
2022/04/12 13:23:47;;;;;;;1.93;1.30;;;;;25.50;100400.00;;;;4911432;29;20233;-72
2022/04/12 13:26:35;;;;;;;1.97;1.27;;;;;25.40;100398.00;;;;4923626;28;20292;-73
2022/04/12 13:29:25;;;;;;;1.60;1.10;;;;;25.20;100404.00;;;;4917200;28;20304;-68
2022/04/12 13:32:11;;;;;;;2.40;1.33;;;;;25.60;100392.00;;;;4911366;29;20359;-70
2022/04/12 13:34:58;;;;;;;3.67;1.50;;;;;25.70;100400.00;;;;4910751;29;20366;-68
2022/04/12 13:37:45;;;;;;;2.73;1.63;;;;;25.60;100399.00;;;;4912778;29;20908;-70
2022/04/12 13:40:36;;;;;;;1.23;1.10;;;;;25.70;100395.00;;;;4924561;28;20250;-70
2022/04/12 13:43:24;;;;;;;2.20;1.20;;;;;26.00;100407.00;;;;4910740;29;20233;-70
2022/04/12 13:46:10;;;;;;;2.13;1.40;;;;;25.90;100403.00;;;;4910549;29;20313;-71
2022/04/12 13:48:57;;;;;;;2.33;1.20;;;;;25.90;100410.00;;;;4912874;29;20273;-71
2022/04/12 13:51:43;;;;;;;1.60;1.30;;;;;26.00;100412.00;;;;4920975;28;20362;-71
2022/04/12 13:54:30;;;;;;;2.35;1.48;;;;;26.20;100407.00;;;;4910713;29;20225;-71
2022/04/12 13:57:16;;;;;;;1.67;1.20;;;;;26.20;100405.00;;;;4928271;28;20281;-72